Terminal Aerodrome Forecast
Issued by NWS Topeka, KS

Home | Current Version | Previous Version | Text Only | Print | Product List | Glossary Off
Versions: 1 2 3 4 5 6 7 8 9 10 11 12 13 14 15 16 17 18 19

382
FTUS43 KTOP 101123
TAFTOP
TAF
KTOP 101123Z 1012/1112 20005KT P6SM BKN070
     FM101500 22013G21KT P6SM SKC
     FM102100 27011KT P6SM SKC
     FM110100 35010KT P6SM SCT025=

USA.gov is the U.S. government's official web portal to all federal, state and local government web resources and services.